sensor_id;sensor_type;location;lat;lon;timestamp;pressure;altitude;pressure_sealevel;temperature;humidity
57904;BME280;43720;47.462;19.030;2023-05-18T03:59:00;100543.62;;;11.23;100.00
57904;BME280;43720;47.462;19.030;2023-05-18T04:02:02;100541.97;;;11.32;100.00
57904;BME280;43720;47.462;19.030;2023-05-18T04:05:06;100542.91;;;11.37;100.00
57904;BME280;43720;47.462;19.030;2023-05-18T04:08:09;100547.25;;;11.35;100.00
57904;BME280;43720;47.462;19.030;2023-05-18T04:11:15;100545.59;;;11.41;100.00
57904;BME280;43720;47.462;19.030;2023-05-18T04:14:17;100546.34;;;11.31;100.00
57904;BME280;43720;47.462;19.030;2023-05-18T04:17:22;100551.53;;;11.28;100.00
57904;BME280;43720;47.462;19.030;2023-05-18T04:20:24;100561.16;;;11.31;100.00
57904;BME280;43720;47.462;19.030;2023-05-18T04:23:29;100559.44;;;11.34;100.00
57904;BME280;43720;47.462;19.030;2023-05-18T04:26:33;100559.53;;;11.39;100.00
57904;BME280;43720;47.462;19.030;2023-05-18T04:29:38;100561.00;;;11.21;100.00
57904;BME280;43720;47.462;19.030;2023-05-18T04:32:41;100568.91;;;11.24;100.00
57904;BME280;43720;47.462;19.030;2023-05-18T04:35:44;100571.59;;;11.27;100.00
57904;BME280;43720;47.462;19.030;2023-05-18T04:38:47;100568.06;;;11.25;100.00
57904;BME280;43720;47.462;19.030;2023-05-18T04:41:52;100567.19;;;11.25;100.00
57904;BME280;43720;47.462;19.030;2023-05-18T04:45:00;100571.53;;;11.26;100.00
57904;BME280;43720;47.462;19.030;2023-05-18T04:48:03;100572.47;;;11.30;100.00
57904;BME280;43720;47.462;19.030;2023-05-18T04:51:05;100571.59;;;11.29;100.00
57904;BME280;43720;47.462;19.030;2023-05-18T04:54:08;100568.87;;;11.21;100.00
57904;BME280;43720;47.462;19.030;2023-05-18T04:57:10;100570.72;;;11.29;100.00
57904;BME280;43720;47.462;19.030;2023-05-18T05:00:13;100567.25;;;11.30;100.00
57904;BME280;43720;47.462;19.030;2023-05-18T05:03:16;100568.94;;;11.26;100.00
57904;BME280;43720;47.462;19.030;2023-05-18T05:06:18;100575.94;;;11.27;100.00
57904;BME280;43720;47.462;19.030;2023-05-18T05:09:20;100574.25;;;11.31;100.00
57904;BME280;43720;47.462;19.030;2023-05-18T05:12:23;100578.63;;;11.32;100.00
57904;BME280;43720;47.462;19.030;2023-05-18T05:15:25;100579.50;;;11.34;100.00
57904;BME280;43720;47.462;19.030;2023-05-18T05:18:28;100579.56;;;11.38;100.00
57904;BME280;43720;47.462;19.030;2023-05-18T05:21:30;100583.09;;;11.39;100.00
57904;BME280;43720;47.462;19.030;2023-05-18T05:24:33;100588.34;;;11.39;100.00
57904;BME280;43720;47.462;19.030;2023-05-18T05:27:35;100590.09;;;11.40;100.00
57904;BME280;43720;47.462;19.030;2023-05-18T05:30:38;100590.03;;;11.37;100.00
57904;BME280;43720;47.462;19.030;2023-05-18T05:33:40;100594.34;;;11.33;100.00
57904;BME280;43720;47.462;19.030;2023-05-18T05:36:43;100598.88;;;11.45;100.00
57904;BME280;43720;47.462;19.030;2023-05-18T05:39:45;100592.97;;;11.60;100.00
57904;BME280;43720;47.462;19.030;2023-05-18T05:42:48;100592.16;;;11.62;100.00
57904;BME280;43720;47.462;19.030;2023-05-18T05:45:51;100604.38;;;11.65;100.00
57904;BME280;43720;47.462;19.030;2023-05-18T05:48:54;100599.13;;;11.63;100.00
57904;BME280;43720;47.462;19.030;2023-05-18T05:51:56;100597.34;;;11.61;100.00
57904;BME280;43720;47.462;19.030;2023-05-18T05:54:59;100604.31;;;11.60;100.00
57904;BME280;43720;47.462;19.030;2023-05-18T05:58:02;100607.81;;;11.59;100.00
57904;BME280;43720;47.462;19.030;2023-05-18T06:01:06;100606.94;;;11.60;100.00
57904;BME280;43720;47.462;19.030;2023-05-18T06:04:10;100617.47;;;11.63;100.00
57904;BME280;43720;47.462;19.030;2023-05-18T06:07:13;100620.09;;;11.65;100.00
57904;BME280;43720;47.462;19.030;2023-05-18T06:10:16;100627.06;;;11.63;100.00
57904;BME280;43720;47.462;19.030;2023-05-18T06:13:19;100621.84;;;11.64;100.00
57904;BME280;43720;47.462;19.030;2023-05-18T06:16:22;100628.16;;;11.77;100.00
57904;BME280;43720;47.462;19.030;2023-05-18T06:19:24;100628.19;;;11.82;100.00
57904;BME280;43720;47.462;19.030;2023-05-18T06:22:27;100630.09;;;11.90;100.00
57904;BME280;43720;47.462;19.030;2023-05-18T06:25:32;100637.03;;;11.87;100.00
57904;BME280;43720;47.462;19.030;2023-05-18T06:28:37;100633.50;;;11.85;100.00
57904;BME280;43720;47.462;19.030;2023-05-18T06:31:39;100637.03;;;11.85;100.00
57904;BME280;43720;47.462;19.030;2023-05-18T06:34:42;100635.22;;;11.84;100.00
57904;BME280;43720;47.462;19.030;2023-05-18T06:37:46;100633.50;;;11.85;100.00
57904;BME280;43720;47.462;19.030;2023-05-18T06:40:49;100637.06;;;11.91;100.00
57904;BME280;43720;47.462;19.030;2023-05-18T06:43:51;100643.97;;;11.85;100.00
57904;BME280;43720;47.462;19.030;2023-05-18T06:46:55;100646.75;;;11.95;100.00
57904;BME280;43720;47.462;19.030;2023-05-18T06:49:58;100642.50;;;12.05;100.00
57904;BME280;43720;47.462;19.030;2023-05-18T06:53:01;100647.91;;;12.17;100.00
57904;BME280;43720;47.462;19.030;2023-05-18T06:56:04;100653.09;;;12.14;100.00
57904;BME280;43720;47.462;19.030;2023-05-18T06:59:07;100658.44;;;12.22;100.00
57904;BME280;43720;47.462;19.030;2023-05-18T07:02:09;100663.63;;;12.17;100.00
57904;BME280;43720;47.462;19.030;2023-05-18T07:05:12;100668.03;;;12.21;100.00
57904;BME280;43720;47.462;19.030;2023-05-18T07:08:15;100664.50;;;12.16;100.00
57904;BME280;43720;47.462;19.030;2023-05-18T07:11:18;100663.53;;;12.08;100.00
57904;BME280;43720;47.462;19.030;2023-05-18T07:14:20;100672.22;;;12.04;100.00
57904;BME280;43720;47.462;19.030;2023-05-18T07:17:23;100675.72;;;12.08;100.00
57904;BME280;43720;47.462;19.030;2023-05-18T07:20:26;100675.72;;;12.08;100.00
57904;BME280;43720;47.462;19.030;2023-05-18T07:23:29;100682.69;;;12.06;100.00
57904;BME280;43720;47.462;19.030;2023-05-18T07:26:31;100682.59;;;11.99;100.00
57904;BME280;43720;47.462;19.030;2023-05-18T07:29:33;100687.03;;;12.04;100.00
57904;BME280;43720;47.462;19.030;2023-05-18T07:32:36;100686.34;;;12.18;100.00
57904;BME280;43720;47.462;19.030;2023-05-18T07:35:39;100687.31;;;12.23;100.00
57904;BME280;43720;47.462;19.030;2023-05-18T07:38:41;100680.31;;;12.24;100.00
57904;BME280;43720;47.462;19.030;2023-05-18T07:41:47;100691.81;;;12.37;100.00
57904;BME280;43720;47.462;19.030;2023-05-18T07:44:50;100697.94;;;12.37;100.00
57904;BME280;43720;47.462;19.030;2023-05-18T07:47:53;100690.00;;;12.31;100.00
57904;BME280;43720;47.462;19.030;2023-05-18T07:50:55;100694.44;;;12.37;100.00
57904;BME280;43720;47.462;19.030;2023-05-18T07:53:58;100693.63;;;12.39;100.00
57904;BME280;43720;47.462;19.030;2023-05-18T07:57:00;100697.16;;;12.46;100.00
57904;BME280;43720;47.462;19.030;2023-05-18T08:00:03;100689.34;;;12.49;100.00
57904;BME280;43720;47.462;19.030;2023-05-18T11:11:58;100726.75;;;14.28;100.00
57904;BME280;43720;47.462;19.030;2023-05-18T11:15:01;100728.53;;;14.29;100.00
57904;BME280;43720;47.462;19.030;2023-05-18T11:18:14;100737.31;;;14.34;100.00
57904;BME280;43720;47.462;19.030;2023-05-18T11:24:30;100734.66;;;14.35;100.00
57904;BME280;43720;47.462;19.030;2023-05-18T11:27:33;100738.09;;;14.20;100.00
